createdAt,value
2018-09-05T00:00:57.661Z,977.49
2018-09-05T00:01:57.513Z,977.48
2018-09-05T00:02:57.510Z,977.49
2018-09-05T00:03:57.505Z,977.49
2018-09-05T00:04:57.534Z,977.48
2018-09-05T00:05:57.510Z,977.47
2018-09-05T00:06:57.509Z,977.48
2018-09-05T00:07:57.507Z,977.45
2018-09-05T00:08:57.506Z,977.44
2018-09-05T00:09:57.536Z,977.46
2018-09-05T00:10:57.502Z,977.46
2018-09-05T00:11:57.501Z,977.46
2018-09-05T00:12:57.504Z,977.43
2018-09-05T00:13:57.527Z,977.40
2018-09-05T00:14:57.499Z,977.43
2018-09-05T00:15:57.503Z,977.40
2018-09-05T00:16:57.500Z,977.40
2018-09-05T00:17:57.496Z,977.37
2018-09-05T00:18:57.525Z,977.38
2018-09-05T00:19:57.499Z,977.35
2018-09-05T00:20:57.497Z,977.38
2018-09-05T00:21:57.498Z,977.37
2018-09-05T00:22:57.521Z,977.37
2018-09-05T00:23:57.493Z,977.35
2018-09-05T00:24:57.522Z,977.37
2018-09-05T00:25:57.497Z,977.40
2018-09-05T00:26:57.489Z,977.36
2018-09-05T00:27:57.486Z,977.38
2018-09-05T00:28:57.491Z,977.38
2018-09-05T00:29:57.539Z,977.39
2018-09-05T00:30:57.486Z,977.39
2018-09-05T00:31:57.483Z,977.36
2018-09-05T00:32:57.486Z,977.37
2018-09-05T00:33:57.519Z,977.38
2018-09-05T00:34:57.483Z,977.35
2018-09-05T00:35:57.482Z,977.36
2018-09-05T00:36:57.484Z,977.36
2018-09-05T00:37:57.483Z,977.33
2018-09-05T00:38:57.509Z,977.33
2018-09-05T00:39:57.504Z,977.37
2018-09-05T00:40:57.480Z,977.38
2018-09-05T00:41:57.484Z,977.37
2018-09-05T00:42:57.476Z,977.39
2018-09-05T00:43:57.477Z,977.41
2018-09-05T00:44:57.504Z,977.39
2018-09-05T00:45:57.477Z,977.41
2018-09-05T00:46:57.473Z,977.37
2018-09-05T00:47:57.473Z,977.40
2018-09-05T00:48:57.473Z,977.36
2018-09-05T00:49:57.497Z,977.38
2018-09-05T00:50:57.476Z,977.41
2018-09-05T00:51:57.470Z,977.42
2018-09-05T00:52:57.467Z,977.42
2018-09-05T00:53:57.470Z,977.40
2018-09-05T00:54:57.494Z,977.40
2018-09-05T00:55:57.468Z,977.38
2018-09-05T00:56:57.466Z,977.42
2018-09-05T00:57:57.467Z,977.37
2018-09-05T00:58:57.462Z,977.37
2018-09-05T00:59:57.487Z,977.38
2018-09-05T01:00:57.463Z,977.38
2018-09-05T01:01:57.460Z,977.37
2018-09-05T01:02:57.457Z,977.33
2018-09-05T01:03:57.463Z,977.39
2018-09-05T01:04:57.493Z,977.35
2018-09-05T01:05:57.458Z,977.38
2018-09-05T01:06:57.456Z,977.39
2018-09-05T01:07:57.459Z,977.42
2018-09-05T01:08:57.480Z,977.42
2018-09-05T01:09:57.450Z,977.44
2018-09-05T01:10:57.455Z,977.41
2018-09-05T01:11:57.449Z,977.41
2018-09-05T01:12:57.446Z,977.43
2018-09-05T01:13:57.477Z,977.42
2018-09-05T01:14:57.478Z,977.46
2018-09-05T01:15:57.446Z,977.41
2018-09-05T01:16:57.444Z,977.41
2018-09-05T01:17:57.450Z,977.41
2018-09-05T01:18:57.442Z,977.39
2018-09-05T01:19:57.471Z,977.46
2018-09-05T01:20:57.443Z,977.43
2018-09-05T01:21:57.451Z,977.44
2018-09-05T01:22:57.446Z,977.43
2018-09-05T01:23:57.440Z,977.47
2018-09-05T01:24:57.467Z,977.46
2018-09-05T01:25:57.436Z,977.45
2018-09-05T01:26:57.438Z,977.47
2018-09-05T01:27:57.436Z,977.44
2018-09-05T01:28:57.431Z,977.48
2018-09-05T01:29:57.464Z,977.47
2018-09-05T01:30:57.435Z,977.48
2018-09-05T01:31:57.429Z,977.48
2018-09-05T01:32:57.428Z,977.46
2018-09-05T01:33:57.428Z,977.46
2018-09-05T01:34:57.456Z,977.46
2018-09-05T01:35:57.425Z,977.44
2018-09-05T01:36:57.425Z,977.43
2018-09-05T01:37:57.425Z,977.46
2018-09-05T01:38:57.427Z,977.47
2018-09-05T01:39:57.454Z,977.46
2018-09-05T01:40:59.083Z,977.46
2018-09-05T01:41:57.423Z,977.44
2018-09-05T01:42:57.417Z,977.48
2018-09-05T01:43:57.444Z,977.47
2018-09-05T01:44:57.446Z,977.44
2018-09-05T01:45:57.416Z,977.47
2018-09-05T01:46:57.413Z,977.46
2018-09-05T01:47:57.410Z,977.43
2018-09-05T01:48:57.411Z,977.41
2018-09-05T01:49:57.435Z,977.41
2018-09-05T01:50:57.407Z,977.39
2018-09-05T01:51:57.408Z,977.38
2018-09-05T01:52:57.408Z,977.37
2018-09-05T01:53:57.403Z,977.38
2018-09-05T01:54:57.437Z,977.43
2018-09-05T01:55:57.404Z,977.44
2018-09-05T01:56:57.401Z,977.42
2018-09-05T01:57:57.407Z,977.42
2018-09-05T01:58:57.401Z,977.40
2018-09-05T01:59:57.430Z,977.41
2018-09-05T02:00:57.398Z,977.39
2018-09-05T02:01:57.446Z,977.39
2018-09-05T02:02:57.398Z,977.41
2018-09-05T02:03:57.421Z,977.38
2018-09-05T02:04:57.394Z,977.41
2018-09-05T02:05:57.393Z,977.43
2018-09-05T02:06:57.394Z,977.41
2018-09-05T02:07:57.393Z,977.41
2018-09-05T02:08:57.421Z,977.46
2018-09-05T02:09:57.418Z,977.45
2018-09-05T02:10:57.375Z,977.46
2018-09-05T02:11:57.375Z,977.46
2018-09-05T02:12:57.376Z,977.51
2018-09-05T02:13:57.392Z,977.47
2018-09-05T02:14:57.400Z,977.47
2018-09-05T02:15:57.367Z,977.44
2018-09-05T02:16:57.368Z,977.44
2018-09-05T02:17:57.370Z,977.45
2018-09-05T02:18:57.396Z,977.45
2018-09-05T02:19:57.395Z,977.45
2018-09-05T02:20:57.372Z,977.43
2018-09-05T02:21:57.365Z,977.44
2018-09-05T02:22:57.364Z,977.45
2018-09-05T02:23:57.364Z,977.42
2018-09-05T02:24:57.386Z,977.44
2018-09-05T02:25:57.357Z,977.41
2018-09-05T02:26:57.357Z,977.41
2018-09-05T02:27:57.357Z,977.42
2018-09-05T02:28:57.353Z,977.43
2018-09-05T02:29:57.387Z,977.42
2018-09-05T02:30:57.356Z,977.42
2018-09-05T02:31:57.349Z,977.41
2018-09-05T02:32:57.353Z,977.45
2018-09-05T02:33:57.350Z,977.43
2018-09-05T02:34:57.380Z,977.44
2018-09-05T02:35:57.346Z,977.39
2018-09-05T02:36:57.350Z,977.39
2018-09-05T02:37:57.343Z,977.40
2018-09-05T02:38:57.371Z,977.36
2018-09-05T02:39:57.367Z,977.39
2018-09-05T02:40:57.339Z,977.41
2018-09-05T02:41:57.339Z,977.35
2018-09-05T02:42:57.336Z,977.37
2018-09-05T02:43:57.340Z,977.35
2018-09-05T02:44:57.360Z,977.35
2018-09-05T02:45:57.336Z,977.36
2018-09-05T02:46:57.333Z,977.37
2018-09-05T02:47:57.352Z,977.39
2018-09-05T02:48:57.325Z,977.41
2018-09-05T02:49:57.355Z,977.41
2018-09-05T02:50:57.328Z,977.40
2018-09-05T02:51:57.324Z,977.43
2018-09-05T02:52:57.325Z,977.43
2018-09-05T02:53:57.326Z,977.45
2018-09-05T02:54:57.349Z,977.44
2018-09-05T02:55:57.321Z,977.43
2018-09-05T02:56:57.317Z,977.44
2018-09-05T02:57:57.316Z,977.40
2018-09-05T02:58:57.322Z,977.41
2018-09-05T02:59:57.347Z,977.39
2018-09-05T03:00:57.485Z,977.38
2018-09-05T03:01:57.311Z,977.41
2018-09-05T03:02:57.310Z,977.42
2018-09-05T03:03:57.311Z,977.40
2018-09-05T03:04:57.334Z,977.41
2018-09-05T03:05:57.307Z,977.38
2018-09-05T03:06:57.308Z,977.38
2018-09-05T03:07:57.311Z,977.38
2018-09-05T03:08:57.308Z,977.39
2018-09-05T03:09:57.332Z,977.37
2018-09-05T03:10:57.306Z,977.36
2018-09-05T03:11:57.296Z,977.34
2018-09-05T03:12:57.434Z,977.33
2018-09-05T03:13:57.297Z,977.31
2018-09-05T03:14:57.323Z,977.34
2018-09-05T03:15:57.294Z,977.38
2018-09-05T03:16:57.293Z,977.38
2018-09-05T03:17:57.293Z,977.34
2018-09-05T03:18:57.289Z,977.36
2018-09-05T03:19:57.320Z,977.38
2018-09-05T03:20:57.313Z,977.33
2018-09-05T03:21:57.292Z,977.37
2018-09-05T03:22:57.287Z,977.37
2018-09-05T03:23:57.279Z,977.33
2018-09-05T03:24:57.277Z,977.36
2018-09-05T03:25:57.308Z,977.34
2018-09-05T03:26:57.289Z,977.35
2018-09-05T03:27:57.279Z,977.36
2018-09-05T03:28:57.282Z,977.36
2018-09-05T03:29:57.301Z,977.36
2018-09-05T03:30:57.277Z,977.36
2018-09-05T03:31:57.272Z,977.39
2018-09-05T03:32:57.285Z,977.40
2018-09-05T03:33:57.271Z,977.37
2018-09-05T03:34:57.299Z,977.43
2018-09-05T03:35:57.269Z,977.42
2018-09-05T03:36:57.268Z,977.40
2018-09-05T03:37:57.264Z,977.44
2018-09-05T03:38:57.266Z,977.41
2018-09-05T03:39:57.291Z,977.42
2018-09-05T03:40:57.464Z,977.41
2018-09-05T03:41:57.261Z,977.39
2018-09-05T03:42:57.274Z,977.39
2018-09-05T03:43:57.299Z,977.41
2018-09-05T03:44:57.281Z,977.41
2018-09-05T03:45:57.253Z,977.39
2018-09-05T03:46:57.253Z,977.42
2018-09-05T03:47:57.249Z,977.41
2018-09-05T03:48:57.251Z,977.44
2018-09-05T03:49:57.271Z,977.44
2018-09-05T03:50:57.250Z,977.41
2018-09-05T03:51:57.247Z,977.44
2018-09-05T03:52:57.242Z,977.43
2018-09-05T03:53:57.242Z,977.44
2018-09-05T03:54:57.270Z,977.44
2018-09-05T03:55:57.265Z,977.42
2018-09-05T03:56:57.238Z,977.45
2018-09-05T03:57:57.246Z,977.48
2018-09-05T03:58:57.235Z,977.48
2018-09-05T03:59:57.259Z,977.49
2018-09-05T04:00:57.232Z,977.46
2018-09-05T04:01:57.231Z,977.48
2018-09-05T04:02:57.231Z,977.44
2018-09-05T04:03:57.228Z,977.45
2018-09-05T04:04:57.264Z,977.45
2018-09-05T04:05:57.256Z,977.47
2018-09-05T04:06:57.227Z,977.42
2018-09-05T04:07:57.224Z,977.42
2018-09-05T04:08:57.223Z,977.44
2018-09-05T04:09:57.254Z,977.42
2018-09-05T04:10:57.220Z,977.42
2018-09-05T04:11:57.221Z,977.41
2018-09-05T04:12:57.216Z,977.42
2018-09-05T04:13:57.217Z,977.44
2018-09-05T04:14:57.347Z,977.43
2018-09-05T04:15:57.276Z,977.43
2018-09-05T04:16:57.210Z,977.42
2018-09-05T04:17:57.212Z,977.49
2018-09-05T04:18:57.209Z,977.44
2018-09-05T04:19:57.203Z,977.47
2018-09-05T04:20:57.237Z,977.46
2018-09-05T04:21:57.309Z,977.49
2018-09-05T04:22:57.198Z,977.48
2018-09-05T04:23:57.205Z,977.51
2018-09-05T04:24:57.276Z,977.53
2018-09-05T04:25:57.204Z,977.52
2018-09-05T04:26:57.199Z,977.51
2018-09-05T04:27:57.195Z,977.51
2018-09-05T04:28:57.195Z,977.50
2018-09-05T04:29:57.301Z,977.51
2018-09-05T04:30:57.195Z,977.54
2018-09-05T04:31:57.194Z,977.55
2018-09-05T04:32:57.192Z,977.55
2018-09-05T04:33:57.190Z,977.56
2018-09-05T04:34:57.214Z,977.57
2018-09-05T04:35:57.181Z,977.59
2018-09-05T04:36:57.186Z,977.58
2018-09-05T04:37:57.184Z,977.60
2018-09-05T04:38:57.184Z,977.61
2018-09-05T04:39:57.205Z,977.60
2018-09-05T04:40:57.185Z,977.63
2018-09-05T04:41:57.184Z,977.61
2018-09-05T04:42:57.181Z,977.62
2018-09-05T04:43:57.178Z,977.62
2018-09-05T04:44:57.209Z,977.63
2018-09-05T04:45:57.169Z,977.65
2018-09-05T04:46:57.174Z,977.63
2018-09-05T04:47:57.170Z,977.68
2018-09-05T04:48:57.171Z,977.66
2018-09-05T04:49:57.197Z,977.64
2018-09-05T04:50:57.166Z,977.67
2018-09-05T04:51:57.195Z,977.66
2018-09-05T04:52:57.164Z,977.65
2018-09-05T04:53:57.165Z,977.67
2018-09-05T04:54:57.158Z,977.67
2018-09-05T04:55:57.183Z,977.67
2018-09-05T04:56:57.160Z,977.70
2018-09-05T04:57:57.160Z,977.71
2018-09-05T04:58:57.160Z,977.74
2018-09-05T04:59:57.183Z,977.74
2018-09-05T05:00:57.156Z,977.74
2018-09-05T05:01:57.179Z,977.76
2018-09-05T05:02:57.151Z,977.79
2018-09-05T05:03:57.937Z,977.81
2018-09-05T05:04:57.154Z,977.86
2018-09-05T05:05:57.297Z,977.82
2018-09-05T05:06:57.149Z,977.81
2018-09-05T05:07:57.149Z,977.83
2018-09-05T05:08:57.143Z,977.85
2018-09-05T05:09:57.147Z,977.84
2018-09-05T05:10:57.175Z,977.82
2018-09-05T05:11:57.142Z,977.83
2018-09-05T05:12:57.146Z,977.85
2018-09-05T05:13:57.168Z,977.88
2018-09-05T05:14:57.167Z,977.87
2018-09-05T05:15:57.164Z,977.90
2018-09-05T05:16:57.140Z,977.90
2018-09-05T05:17:57.145Z,977.93
2018-09-05T05:18:57.147Z,977.94
2018-09-05T05:19:57.138Z,977.93
2018-09-05T05:20:57.171Z,977.97
2018-09-05T05:21:57.138Z,977.98
2018-09-05T05:22:57.134Z,977.95
2018-09-05T05:23:57.139Z,977.97
2018-09-05T05:24:57.129Z,977.98
2018-09-05T05:25:57.163Z,977.97
2018-09-05T05:26:57.132Z,978.03
2018-09-05T05:27:57.134Z,978.01
2018-09-05T05:28:57.129Z,978.03
2018-09-05T05:29:57.125Z,978.02
2018-09-05T05:30:57.157Z,978.02
2018-09-05T05:31:57.132Z,977.97
2018-09-05T05:32:57.233Z,977.99
2018-09-05T05:33:57.134Z,978.00
2018-09-05T05:34:57.128Z,978.03
2018-09-05T05:35:57.153Z,978.03
2018-09-05T05:36:57.161Z,978.05
2018-09-05T05:37:57.126Z,978.03
2018-09-05T05:38:57.129Z,978.05
2018-09-05T05:39:57.122Z,978.05
2018-09-05T05:40:57.126Z,978.12
2018-09-05T05:41:57.152Z,978.16
2018-09-05T05:42:57.124Z,978.13
2018-09-05T05:43:57.127Z,978.09
2018-09-05T05:44:57.154Z,978.09
2018-09-05T05:45:57.221Z,978.10
2018-09-05T05:46:57.123Z,978.11
2018-09-05T05:47:57.123Z,978.07
2018-09-05T05:48:57.120Z,978.10
2018-09-05T05:49:57.119Z,978.11
2018-09-05T05:50:57.479Z,978.16
2018-09-05T05:51:57.115Z,978.17
2018-09-05T05:52:57.119Z,978.19
2018-09-05T05:53:57.120Z,978.21
2018-09-05T05:54:57.124Z,978.20
2018-09-05T05:55:57.144Z,978.23
2018-09-05T05:56:57.119Z,978.26
2018-09-05T05:57:57.150Z,978.22
2018-09-05T05:58:57.120Z,978.28
2018-09-05T05:59:57.121Z,978.29
2018-09-05T06:00:57.180Z,978.27
2018-09-05T06:01:57.144Z,978.29
2018-09-05T06:02:57.121Z,978.29
2018-09-05T06:03:57.128Z,978.28
2018-09-05T06:04:57.123Z,978.29
2018-09-05T06:05:57.161Z,978.28
2018-09-05T06:06:57.121Z,978.28
2018-09-05T06:07:57.153Z,978.31
2018-09-05T06:08:57.121Z,978.34
2018-09-05T06:09:57.127Z,978.34
2018-09-05T06:10:57.169Z,978.36
2018-09-05T06:11:57.196Z,978.37
2018-09-05T06:12:57.122Z,978.36
2018-09-05T06:13:57.127Z,978.40
2018-09-05T06:14:57.127Z,978.41
2018-09-05T06:15:57.128Z,978.43
2018-09-05T06:16:57.160Z,978.46
2018-09-05T06:17:57.141Z,978.50
2018-09-05T06:18:57.130Z,978.51
2018-09-05T06:19:57.130Z,978.54
2018-09-05T06:20:57.172Z,978.52
2018-09-05T06:21:57.164Z,978.49
2018-09-05T06:22:57.140Z,978.54
2018-09-05T06:23:57.156Z,978.53
2018-09-05T06:24:57.140Z,978.54
2018-09-05T06:25:57.150Z,978.56
2018-09-05T06:26:57.169Z,978.55
2018-09-05T06:27:57.312Z,978.56
2018-09-05T06:28:57.147Z,978.56
2018-09-05T06:29:57.155Z,978.57
2018-09-05T06:30:57.214Z,978.59
2018-09-05T06:31:57.187Z,978.56
2018-09-05T06:32:57.161Z,978.55
2018-09-05T06:33:57.169Z,978.53
2018-09-05T06:34:57.166Z,978.55
2018-09-05T06:35:57.272Z,978.52
2018-09-05T06:36:57.167Z,978.56
2018-09-05T06:37:57.225Z,978.53
2018-09-05T06:38:57.271Z,978.53
2018-09-05T06:39:57.195Z,978.59
2018-09-05T06:40:57.238Z,978.57
2018-09-05T06:41:57.484Z,978.58
2018-09-05T06:42:57.190Z,978.59
2018-09-05T06:44:57.278Z,978.61
2018-09-05T06:45:58.389Z,978.63
2018-09-05T06:46:58.971Z,978.60
2018-09-05T06:48:04.321Z,978.62
2018-09-05T06:48:57.271Z,978.52
2018-09-05T06:49:58.890Z,978.51
2018-09-05T06:51:00.332Z,978.50
2018-09-05T06:51:59.848Z,978.52
2018-09-05T06:52:59.859Z,978.52
2018-09-05T06:53:57.821Z,978.51
2018-09-05T06:54:59.968Z,978.57
2018-09-05T06:56:03.822Z,978.55
2018-09-05T06:56:58.531Z,978.50
2018-09-05T06:58:02.864Z,978.56
2018-09-05T06:58:57.255Z,978.52
2018-09-05T06:59:57.255Z,978.50
2018-09-05T07:00:57.285Z,978.51
2018-09-05T07:02:02.119Z,978.53
2018-09-05T07:02:57.408Z,978.61
2018-09-05T07:03:59.186Z,978.60
2018-09-05T07:04:57.592Z,978.53
2018-09-05T07:05:57.476Z,978.51
2018-09-05T07:06:57.518Z,978.52
2018-09-05T07:07:58.161Z,978.52
2018-09-05T07:08:57.292Z,978.57
2018-09-05T07:09:57.358Z,978.65
2018-09-05T07:10:57.344Z,978.65
2018-09-05T07:11:57.305Z,978.62
2018-09-05T07:12:57.331Z,978.61
2018-09-05T07:13:57.310Z,978.61
2018-09-05T07:14:57.323Z,978.63
2018-09-05T07:15:57.320Z,978.64
2018-09-05T07:16:57.351Z,978.67
2018-09-05T07:17:57.334Z,978.72
2018-09-05T07:18:57.336Z,978.74
2018-09-05T07:19:57.335Z,978.76
2018-09-05T07:21:05.678Z,978.76
2018-09-05T07:21:57.410Z,978.77
2018-09-05T07:22:57.353Z,978.76
2018-09-05T07:23:57.382Z,978.79
2018-09-05T07:24:57.394Z,978.78
2018-09-05T07:25:57.364Z,978.79
2018-09-05T07:26:57.411Z,978.80
2018-09-05T07:27:57.375Z,978.79
2018-09-05T07:28:57.382Z,978.80
2018-09-05T07:29:57.385Z,978.78
2018-09-05T07:30:57.495Z,978.81
2018-09-05T07:31:57.402Z,978.79
2018-09-05T07:32:59.327Z,978.80
2018-09-05T07:33:57.447Z,978.80
2018-09-05T07:34:57.417Z,978.78
2018-09-05T07:35:57.460Z,978.80
2018-09-05T07:36:57.561Z,978.80
2018-09-05T07:37:57.444Z,978.81
2018-09-05T07:38:57.450Z,978.85
2018-09-05T07:39:57.453Z,978.83
2018-09-05T07:40:57.458Z,978.86
2018-09-05T07:41:57.512Z,978.86
2018-09-05T07:42:57.476Z,978.83
2018-09-05T07:43:57.485Z,978.84
2018-09-05T07:44:57.493Z,978.86
2018-09-05T07:45:57.500Z,978.88
2018-09-05T07:46:57.554Z,978.90
2018-09-05T07:47:57.513Z,978.93
2018-09-05T07:48:57.531Z,978.91
2018-09-05T07:49:58.364Z,978.92
2018-09-05T07:50:57.762Z,978.93
2018-09-05T07:51:57.588Z,978.94
2018-09-05T07:52:57.567Z,978.94
2018-09-05T07:53:57.574Z,978.90
2018-09-05T07:54:57.582Z,978.92
2018-09-05T07:55:57.629Z,978.95
2018-09-05T07:56:57.597Z,978.96
2018-09-05T07:57:57.607Z,978.97
2018-09-05T07:58:57.654Z,979.00
2018-09-05T07:59:57.626Z,978.98
2018-09-05T08:00:57.635Z,978.97
2018-09-05T08:01:57.679Z,978.96
2018-09-05T08:02:57.678Z,978.98
2018-09-05T08:03:57.659Z,978.99
2018-09-05T08:04:57.676Z,978.96
2018-09-05T08:05:57.693Z,978.97
2018-09-05T08:06:57.749Z,978.96
2018-09-05T08:07:57.703Z,978.98
2018-09-05T08:08:57.719Z,979.01
2018-09-05T08:09:57.730Z,979.00
2018-09-05T08:10:57.786Z,979.01
2018-09-05T08:11:57.752Z,979.07
2018-09-05T08:12:57.764Z,979.04
2018-09-05T08:13:57.776Z,979.02
2018-09-05T08:14:57.800Z,979.09
2018-09-05T08:15:57.848Z,979.06
2018-09-05T08:16:57.806Z,979.08
2018-09-05T08:17:57.837Z,979.07
2018-09-05T08:18:57.867Z,979.09
2018-09-05T08:19:57.846Z,979.01
2018-09-05T08:20:57.854Z,979.02
2018-09-05T08:21:57.908Z,979.07
2018-09-05T08:22:57.881Z,979.01
2018-09-05T08:23:57.891Z,979.05
2018-09-05T08:24:57.896Z,979.08
2018-09-05T08:25:57.935Z,979.06
2018-09-05T08:26:57.923Z,979.07
2018-09-05T08:27:57.939Z,979.06
2018-09-05T08:28:58.015Z,979.11
2018-09-05T08:29:57.968Z,979.10
2018-09-05T08:30:58.009Z,979.11
2018-09-05T08:31:57.977Z,979.06
2018-09-05T08:32:57.988Z,979.14
2018-09-05T08:33:59.004Z,978.99
2018-09-05T08:34:59.043Z,979.09
2018-09-05T08:35:58.316Z,979.01
2018-09-05T08:36:58.251Z,979.21
2018-09-05T08:37:58.095Z,979.12
2018-09-05T08:38:58.119Z,979.15
2018-09-05T08:39:58.129Z,979.13
2018-09-05T08:40:58.263Z,979.19
2018-09-05T08:41:58.420Z,979.19
2018-09-05T08:42:58.147Z,979.06
2018-09-05T08:43:58.658Z,979.01
2018-09-05T08:44:58.514Z,979.05
2018-09-05T08:45:58.241Z,979.00
2018-09-05T08:46:58.280Z,979.00
2018-09-05T08:47:58.293Z,978.99
2018-09-05T08:48:58.353Z,978.96
2018-09-05T08:49:58.522Z,978.93
2018-09-05T08:50:58.303Z,978.98
2018-09-05T08:51:59.354Z,979.05
2018-09-05T08:52:58.263Z,979.05
2018-09-05T08:53:58.266Z,979.01
2018-09-05T08:54:58.315Z,979.06
2018-09-05T08:55:58.326Z,979.11
2018-09-05T08:56:58.316Z,978.93
2018-09-05T08:57:58.317Z,979.13
2018-09-05T08:58:58.321Z,979.10
2018-09-05T08:59:58.373Z,979.13
2018-09-05T09:00:59.136Z,979.11
2018-09-05T09:01:58.405Z,979.06
2018-09-05T09:02:58.413Z,978.98
2018-09-05T09:03:59.890Z,979.02
2018-09-05T09:04:58.463Z,978.94
2018-09-05T09:05:58.455Z,979.10
2018-09-05T09:06:58.432Z,979.07
2018-09-05T09:07:58.724Z,979.06
2018-09-05T09:08:58.481Z,979.09
2018-09-05T09:09:58.475Z,979.08
2018-09-05T09:10:58.522Z,979.12
2018-09-05T09:11:58.518Z,979.17
2018-09-05T09:12:58.529Z,979.14
2018-09-05T09:13:58.528Z,979.13
2018-09-05T09:14:58.546Z,979.03
2018-09-05T09:15:58.614Z,979.06
2018-09-05T09:16:58.585Z,979.05
2018-09-05T09:17:59.424Z,979.02
2018-09-05T09:18:58.611Z,979.00
2018-09-05T09:19:58.622Z,979.01
2018-09-05T09:20:58.684Z,979.07
2018-09-05T09:21:58.654Z,979.04
2018-09-05T09:22:58.789Z,979.05
2018-09-05T09:23:58.682Z,979.02
2018-09-05T09:24:58.702Z,978.97
2018-09-05T09:25:58.769Z,979.00
2018-09-05T09:26:58.738Z,979.01
2018-09-05T09:27:58.806Z,978.94
2018-09-05T09:28:59.870Z,978.93
2018-09-05T09:29:58.794Z,978.91
2018-09-05T09:30:58.844Z,978.92
2018-09-05T09:31:58.814Z,978.94
2018-09-05T09:32:58.834Z,978.89
2018-09-05T09:33:58.852Z,978.90
2018-09-05T09:34:59.530Z,978.94
2018-09-05T09:35:58.924Z,978.95
2018-09-05T09:36:58.970Z,978.89
2018-09-05T09:37:58.917Z,978.93
2018-09-05T09:38:58.930Z,978.91
2018-09-05T09:40:01.874Z,978.91
2018-09-05T09:40:59.003Z,978.86
2018-09-05T09:41:58.980Z,978.84
2018-09-05T09:42:59.003Z,978.84
2018-09-05T09:43:59.016Z,978.81
2018-09-05T09:44:59.067Z,978.82
2018-09-05T09:46:00.422Z,978.82
2018-09-05T09:46:59.057Z,978.81
2018-09-05T09:47:59.076Z,978.84
2018-09-05T09:48:59.094Z,978.80
2018-09-05T09:49:59.153Z,978.80
2018-09-05T09:51:00.019Z,978.77
2018-09-05T09:51:59.176Z,978.83
2018-09-05T09:52:59.165Z,978.81
2018-09-05T09:53:59.188Z,978.78
2018-09-05T09:54:59.236Z,978.78
2018-09-05T09:55:59.251Z,978.78
2018-09-05T09:57:01.069Z,978.76
2018-09-05T09:57:59.250Z,978.77
2018-09-05T09:58:59.261Z,978.78
2018-09-05T09:59:59.280Z,978.76
2018-09-05T10:00:59.336Z,978.75
2018-09-05T10:01:59.330Z,978.69
2018-09-05T10:02:59.330Z,978.70
2018-09-05T10:03:59.364Z,978.71
2018-09-05T10:04:59.362Z,978.71
2018-09-05T10:05:59.435Z,978.68
2018-09-05T10:06:59.411Z,978.71
2018-09-05T10:07:59.415Z,978.74
2018-09-05T10:08:59.435Z,978.72
2018-09-05T10:09:59.668Z,978.69
2018-09-05T10:10:59.472Z,978.66
2018-09-05T10:11:59.524Z,978.66
2018-09-05T10:12:59.502Z,978.60
2018-09-05T10:13:59.519Z,978.59
2018-09-05T10:14:59.602Z,978.62
2018-09-05T10:15:59.582Z,978.62
2018-09-05T10:16:59.624Z,978.55
2018-09-05T10:17:59.583Z,978.60
2018-09-05T10:18:59.603Z,978.63
2018-09-05T10:19:59.616Z,978.65
2018-09-05T10:20:59.687Z,978.62
2018-09-05T10:21:59.656Z,978.61
2018-09-05T10:22:59.671Z,978.60
2018-09-05T10:23:59.688Z,978.57
2018-09-05T10:24:59.707Z,978.53
2018-09-05T10:25:59.754Z,978.55
2018-09-05T10:26:59.777Z,978.55
2018-09-05T10:27:59.761Z,978.61
2018-09-05T10:28:59.773Z,978.61
2018-09-05T10:29:59.791Z,978.60
2018-09-05T10:30:59.861Z,978.62
2018-09-05T10:31:59.834Z,978.58
2018-09-05T10:32:59.840Z,978.57
2018-09-05T10:33:59.863Z,978.47
2018-09-05T10:34:59.881Z,978.49
2018-09-05T10:35:59.935Z,978.48
2018-09-05T10:36:59.915Z,978.48
2018-09-05T10:37:59.936Z,978.48
2018-09-05T10:38:59.952Z,978.50
2018-09-05T10:39:59.968Z,978.46
2018-09-05T10:41:00.022Z,978.48
2018-09-05T10:42:00.008Z,978.53
2018-09-05T10:43:00.025Z,978.49
2018-09-05T10:44:00.042Z,978.47
2018-09-05T10:45:00.059Z,978.46
2018-09-05T10:46:00.116Z,978.42
2018-09-05T10:47:00.099Z,978.44
2018-09-05T10:48:00.115Z,978.41
2018-09-05T10:49:00.134Z,978.44
2018-09-05T10:50:00.155Z,978.45
2018-09-05T10:51:00.207Z,978.50
2018-09-05T10:52:00.188Z,978.42
2018-09-05T10:53:00.204Z,978.46
2018-09-05T10:54:00.223Z,978.45
2018-09-05T10:55:00.239Z,978.45
2018-09-05T10:56:00.304Z,978.48
2018-09-05T10:57:00.282Z,978.48
2018-09-05T10:58:00.345Z,978.49
2018-09-05T10:59:00.315Z,978.50
2018-09-05T11:00:00.332Z,978.48
2018-09-05T11:01:00.389Z,978.40
2018-09-05T11:02:00.374Z,978.39
2018-09-05T11:03:00.392Z,978.36
2018-09-05T11:04:00.401Z,978.42
2018-09-05T11:05:00.428Z,978.39
2018-09-05T11:06:00.490Z,978.41
2018-09-05T11:07:00.465Z,978.39
2018-09-05T11:08:00.481Z,978.41
2018-09-05T11:09:00.502Z,978.45
2018-09-05T11:10:00.518Z,978.43
2018-09-05T11:11:00.579Z,978.42
2018-09-05T11:12:00.554Z,978.45
2018-09-05T11:13:00.575Z,978.39
2018-09-05T11:14:00.595Z,978.36
2018-09-05T11:15:00.615Z,978.33
2018-09-05T11:16:00.667Z,978.35
2018-09-05T11:17:00.651Z,978.39
2018-09-05T11:18:00.671Z,978.33
2018-09-05T11:19:00.689Z,978.35
2018-09-05T11:20:00.709Z,978.35
2018-09-05T11:21:00.760Z,978.35
2018-09-05T11:22:00.744Z,978.33
2018-09-05T11:23:00.770Z,978.32
2018-09-05T11:24:00.787Z,978.28
2018-09-05T11:25:00.853Z,978.30
2018-09-05T11:26:00.861Z,978.28
2018-09-05T11:27:00.841Z,978.27
2018-09-05T11:28:00.865Z,978.25
2018-09-05T11:29:00.913Z,978.29
2018-09-05T11:30:00.898Z,978.29
2018-09-05T11:31:00.959Z,978.27
2018-09-05T11:32:00.944Z,978.29
2018-09-05T11:33:00.959Z,978.30
2018-09-05T11:34:00.981Z,978.25
2018-09-05T11:35:01.000Z,978.26
2018-09-05T11:36:01.047Z,978.25
2018-09-05T11:37:01.060Z,978.21
2018-09-05T11:38:01.060Z,978.28
2018-09-05T11:39:01.071Z,978.24
2018-09-05T11:40:01.093Z,978.24
2018-09-05T11:41:01.156Z,978.27
2018-09-05T11:42:01.137Z,978.23
2018-09-05T11:43:01.152Z,978.24
2018-09-05T11:44:01.172Z,978.25
2018-09-05T11:45:01.185Z,978.21
2018-09-05T11:46:01.249Z,978.25
2018-09-05T11:47:01.265Z,978.25
2018-09-05T11:48:01.252Z,978.23
2018-09-05T11:49:01.262Z,978.24
2018-09-05T11:50:01.286Z,978.25
2018-09-05T11:51:01.349Z,978.26
2018-09-05T11:52:01.358Z,978.23
2018-09-05T11:53:01.348Z,978.23
2018-09-05T11:54:01.370Z,978.22
2018-09-05T11:55:01.387Z,978.21
2018-09-05T11:56:01.442Z,978.25
2018-09-05T11:57:01.423Z,978.19
2018-09-05T11:58:01.449Z,978.16
2018-09-05T11:59:01.460Z,978.17
2018-09-05T12:00:01.486Z,978.26
2018-09-05T12:01:01.543Z,978.20
2018-09-05T12:02:01.526Z,978.13
2018-09-05T12:03:01.545Z,978.14
2018-09-05T12:04:01.562Z,978.13
2018-09-05T12:05:01.606Z,978.13
2018-09-05T12:06:01.655Z,978.10
2018-09-05T12:07:01.622Z,978.12
2018-09-05T12:08:01.645Z,978.09
2018-09-05T12:09:01.661Z,978.10
2018-09-05T12:10:01.681Z,978.07
2018-09-05T12:11:01.739Z,978.07
2018-09-05T12:12:01.770Z,978.10
2018-09-05T12:13:01.743Z,978.02
2018-09-05T12:14:01.759Z,978.03
2018-09-05T12:15:01.780Z,978.11
2018-09-05T12:16:01.835Z,978.12
2018-09-05T12:17:01.819Z,978.07
2018-09-05T12:18:01.835Z,978.08
2018-09-05T12:19:01.856Z,978.05
2018-09-05T12:20:01.877Z,978.04
2018-09-05T12:21:01.936Z,977.98
2018-09-05T12:22:01.912Z,978.01
2018-09-05T12:23:01.932Z,978.01
2018-09-05T12:24:01.952Z,977.98
2018-09-05T12:25:01.972Z,977.95
2018-09-05T12:26:02.043Z,977.94
2018-09-05T12:27:02.049Z,977.95
2018-09-05T12:28:02.029Z,977.94
2018-09-05T12:29:02.050Z,977.95
2018-09-05T12:30:02.070Z,977.93